createdAt,value
2023-04-15T00:02:14.714Z,11.73
2023-04-15T00:04:42.079Z,11.64
2023-04-15T00:07:10.127Z,11.69
2023-04-15T00:09:38.056Z,11.65
2023-04-15T00:12:06.574Z,11.65
2023-04-15T00:14:34.831Z,11.64
2023-04-15T00:17:03.635Z,11.69
2023-04-15T00:19:32.632Z,11.67
2023-04-15T00:22:00.832Z,11.57
2023-04-15T00:24:29.161Z,11.46
2023-04-15T00:26:56.475Z,11.39
2023-04-15T00:29:24.590Z,11.33
2023-04-15T00:31:51.890Z,11.35
2023-04-15T00:34:19.445Z,11.30
2023-04-15T00:36:47.080Z,11.31
2023-04-15T00:39:14.521Z,11.40
2023-04-15T00:41:44.499Z,11.27
2023-04-15T00:44:12.815Z,11.03
2023-04-15T00:46:40.896Z,11.01
2023-04-15T00:49:08.688Z,11.16
2023-04-15T00:51:36.958Z,11.17
2023-04-15T00:54:05.329Z,11.13
2023-04-15T00:56:38.291Z,11.05
2023-04-15T00:59:07.182Z,11.04
2023-04-15T01:01:35.852Z,10.95
2023-04-15T01:04:03.519Z,10.99
2023-04-15T01:06:32.663Z,10.94
2023-04-15T01:09:00.738Z,10.94
2023-04-15T01:11:29.879Z,10.88
2023-04-15T01:13:58.966Z,10.94
2023-04-15T01:16:28.733Z,10.94
2023-04-15T01:18:56.536Z,10.70
2023-04-15T01:21:24.411Z,10.68
2023-04-15T01:23:53.416Z,10.77
2023-04-15T01:26:21.669Z,10.88
2023-04-15T01:28:49.015Z,10.91
2023-04-15T01:31:17.541Z,10.75
2023-04-15T01:33:47.120Z,10.67
2023-04-15T01:36:34.290Z,10.65
2023-04-15T01:39:02.124Z,10.64
2023-04-15T01:41:30.307Z,10.66
2023-04-15T01:43:59.394Z,10.59
2023-04-15T01:46:28.462Z,10.52
2023-04-15T01:48:57.540Z,10.37
2023-04-15T01:51:28.320Z,10.37
2023-04-15T01:53:57.142Z,10.36
2023-04-15T01:56:26.740Z,10.34
2023-04-15T01:58:55.740Z,10.20
2023-04-15T02:01:25.236Z,10.08
2023-04-15T02:03:54.264Z,9.97
2023-04-15T02:06:22.879Z,10.08
2023-04-15T02:08:51.415Z,10.19
2023-04-15T02:11:20.456Z,10.18
2023-04-15T02:13:49.523Z,10.15
2023-04-15T02:16:19.448Z,10.13
2023-04-15T02:18:48.637Z,9.95
2023-04-15T02:21:18.978Z,9.93
2023-04-15T02:23:48.471Z,10.02
2023-04-15T02:26:17.098Z,10.00
2023-04-15T02:28:47.177Z,9.91
2023-04-15T02:31:16.747Z,9.88
2023-04-15T02:33:46.689Z,9.92
2023-04-15T02:36:15.704Z,9.96
2023-04-15T02:38:44.434Z,9.83
2023-04-15T02:41:14.921Z,9.88
2023-04-15T02:43:46.203Z,9.74
2023-04-15T02:46:16.957Z,9.74
2023-04-15T02:48:46.472Z,9.78
2023-04-15T02:51:16.748Z,9.69
2023-04-15T02:53:46.153Z,9.75
2023-04-15T02:56:19.673Z,9.81
2023-04-15T02:58:50.789Z,9.74
2023-04-15T03:01:20.601Z,9.57
2023-04-15T03:03:49.518Z,9.50
2023-04-15T03:06:18.634Z,9.52
2023-04-15T03:08:47.332Z,9.53
2023-04-15T03:11:17.177Z,9.47
2023-04-15T03:13:45.984Z,9.54
2023-04-15T03:16:26.736Z,9.61
2023-04-15T03:18:55.263Z,9.36
2023-04-15T03:21:25.232Z,9.31
2023-04-15T03:23:54.170Z,9.24
2023-04-15T03:26:27.099Z,9.17
2023-04-15T03:28:57.007Z,9.21
2023-04-15T03:31:25.671Z,9.27
2023-04-15T03:33:54.761Z,9.14
2023-04-15T03:36:23.922Z,9.10
2023-04-15T03:38:53.091Z,9.10
2023-04-15T03:41:22.689Z,9.20
2023-04-15T03:43:53.947Z,9.17
2023-04-15T03:46:22.862Z,9.07
2023-04-15T03:48:52.178Z,9.18
2023-04-15T03:51:21.508Z,9.23
2023-04-15T03:53:51.251Z,9.21
2023-04-15T03:56:19.734Z,9.15
2023-04-15T03:58:48.663Z,9.05
2023-04-15T04:01:17.468Z,9.15
2023-04-15T04:03:46.563Z,9.06
2023-04-15T04:06:15.763Z,9.04
2023-04-15T04:08:44.402Z,9.09
2023-04-15T04:11:13.557Z,9.15
2023-04-15T04:13:42.072Z,9.24
2023-04-15T04:16:11.332Z,9.22
2023-04-15T04:18:39.969Z,9.07
2023-04-15T04:21:09.058Z,9.16
2023-04-15T04:23:37.798Z,9.03
2023-04-15T04:26:06.587Z,9.10
2023-04-15T04:28:36.581Z,9.14
2023-04-15T04:31:05.932Z,9.11
2023-04-15T04:33:35.047Z,8.96
2023-04-15T04:36:03.691Z,9.02
2023-04-15T04:38:32.821Z,9.16
2023-04-15T04:41:01.434Z,9.15
2023-04-15T04:43:30.473Z,9.14
2023-04-15T04:45:59.033Z,9.13
2023-04-15T04:48:27.776Z,9.08
2023-04-15T04:50:56.399Z,9.19
2023-04-15T04:53:25.766Z,9.26
2023-04-15T04:55:54.748Z,9.36
2023-04-15T04:58:23.938Z,9.38
2023-04-15T05:00:52.639Z,9.39
2023-04-15T05:03:22.065Z,9.39
2023-04-15T05:05:51.296Z,9.47
2023-04-15T05:08:19.934Z,9.50
2023-04-15T05:10:48.972Z,9.42
2023-04-15T05:13:17.574Z,9.28
2023-04-15T05:15:46.293Z,9.34
2023-04-15T05:18:14.972Z,9.28
2023-04-15T05:20:44.559Z,9.53
2023-04-15T05:23:13.173Z,9.61
2023-04-15T05:25:42.037Z,9.74
2023-04-15T05:28:10.945Z,9.97
2023-04-15T05:30:40.478Z,10.28
2023-04-15T05:33:09.402Z,10.36
2023-04-15T05:35:38.150Z,10.53
2023-04-15T05:38:06.908Z,10.60
2023-04-15T05:40:35.471Z,10.98
2023-04-15T05:43:04.654Z,10.90
2023-04-15T05:45:33.465Z,11.09
2023-04-15T05:48:02.172Z,11.41
2023-04-15T05:50:31.327Z,11.48
2023-04-15T05:53:00.353Z,11.54
2023-04-15T05:55:29.291Z,11.55
2023-04-15T05:57:58.293Z,11.58
2023-04-15T06:00:27.446Z,11.85
2023-04-15T06:02:59.050Z,11.98
2023-04-15T06:05:27.925Z,11.96
2023-04-15T06:07:56.641Z,12.18
2023-04-15T06:10:25.265Z,12.38
2023-04-15T06:12:53.832Z,12.55
2023-04-15T06:15:23.015Z,12.57
2023-04-15T06:17:52.259Z,12.41
2023-04-15T06:20:20.935Z,12.48
2023-04-15T06:22:49.534Z,12.72
2023-04-15T06:25:18.574Z,12.59
2023-04-15T06:27:47.176Z,12.80
2023-04-15T06:30:16.109Z,12.94
2023-04-15T06:32:45.046Z,12.90
2023-04-15T06:35:14.504Z,12.97
2023-04-15T06:37:43.126Z,13.33
2023-04-15T06:40:12.089Z,13.20
2023-04-15T06:42:41.943Z,13.61
2023-04-15T06:45:10.977Z,13.44
2023-04-15T06:47:40.876Z,13.32
2023-04-15T06:50:10.256Z,13.41
2023-04-15T06:52:38.959Z,13.58
2023-04-15T06:55:08.259Z,13.53
2023-04-15T06:57:37.225Z,13.52
2023-04-15T07:00:07.544Z,13.64
2023-04-15T07:02:36.882Z,13.86
2023-04-15T07:05:07.030Z,13.44
2023-04-15T07:07:36.213Z,13.31
2023-04-15T07:10:05.489Z,13.49
2023-04-15T07:12:35.157Z,13.59
2023-04-15T07:15:04.401Z,14.09
2023-04-15T07:17:33.439Z,14.44
2023-04-15T07:20:02.269Z,14.37
2023-04-15T07:22:31.080Z,14.34
2023-04-15T07:24:59.689Z,14.15
2023-04-15T07:27:28.348Z,14.09
2023-04-15T07:29:57.412Z,14.35
2023-04-15T07:32:26.667Z,14.62
2023-04-15T07:34:55.274Z,14.78
2023-04-15T07:37:24.154Z,15.06
2023-04-15T07:39:53.548Z,15.10
2023-04-15T07:42:22.764Z,15.26
2023-04-15T07:44:52.320Z,15.48
2023-04-15T07:47:21.421Z,14.92
2023-04-15T07:49:51.602Z,14.56
2023-04-15T07:52:20.123Z,14.45
2023-04-15T07:54:48.670Z,14.48
2023-04-15T07:57:17.962Z,14.80
2023-04-15T07:59:46.962Z,15.11
2023-04-15T08:02:15.604Z,15.25
2023-04-15T08:04:44.848Z,14.76
2023-04-15T08:07:13.981Z,14.67
2023-04-15T08:09:42.583Z,14.79
2023-04-15T08:12:13.502Z,14.98
2023-04-15T08:14:42.963Z,15.42
2023-04-15T08:17:12.280Z,15.59
2023-04-15T08:19:40.949Z,15.98
2023-04-15T08:22:15.874Z,15.70
2023-04-15T08:24:47.623Z,15.56
2023-04-15T08:27:16.183Z,15.98
2023-04-15T08:29:45.757Z,16.04
2023-04-15T08:32:15.012Z,16.34
2023-04-15T08:34:44.078Z,16.25
2023-04-15T08:37:12.852Z,16.70
2023-04-15T08:39:42.011Z,16.66
2023-04-15T08:42:16.723Z,16.73
2023-04-15T08:44:46.776Z,16.74
2023-04-15T08:47:18.110Z,17.23
2023-04-15T08:49:48.482Z,17.29
2023-04-15T08:52:17.623Z,17.33
2023-04-15T08:54:46.660Z,16.95
2023-04-15T08:57:16.070Z,17.23
2023-04-15T08:59:45.386Z,17.29
2023-04-15T09:02:14.050Z,17.23
2023-04-15T09:04:42.666Z,17.57
2023-04-15T09:07:11.706Z,17.84
2023-04-15T09:09:42.243Z,17.94
2023-04-15T09:12:11.675Z,17.69
2023-04-15T09:14:40.681Z,17.43
2023-04-15T09:17:11.200Z,17.16
2023-04-15T09:19:39.757Z,17.57
2023-04-15T09:22:08.341Z,18.00
2023-04-15T09:24:39.256Z,17.60
2023-04-15T09:27:08.352Z,17.42
2023-04-15T09:29:37.487Z,17.19
2023-04-15T09:32:16.004Z,17.51
2023-04-15T09:34:45.960Z,19.03
2023-04-15T09:37:31.155Z,19.54
2023-04-15T09:40:00.658Z,20.74
2023-04-15T09:42:30.241Z,21.81
2023-04-15T09:45:08.307Z,22.45
2023-04-15T09:47:37.397Z,23.39
2023-04-15T09:50:06.945Z,23.96
2023-04-15T09:52:41.659Z,23.81
2023-04-15T09:55:11.495Z,25.19
2023-04-15T09:57:44.719Z,25.62
2023-04-15T10:00:14.934Z,23.79
2023-04-15T10:02:44.191Z,24.36
2023-04-15T10:05:14.514Z,25.20
2023-04-15T10:07:44.007Z,24.32
2023-04-15T10:10:13.503Z,24.63
2023-04-15T10:12:42.439Z,23.60
2023-04-15T10:15:15.090Z,24.16
2023-04-15T10:17:44.785Z,23.01
2023-04-15T10:20:15.196Z,24.40
2023-04-15T10:22:45.824Z,24.73
2023-04-15T10:25:15.894Z,24.62
2023-04-15T10:27:45.242Z,23.78
2023-04-15T10:30:14.138Z,23.45
2023-04-15T10:32:43.129Z,24.93
2023-04-15T10:35:12.117Z,25.89
2023-04-15T10:37:40.643Z,26.36
2023-04-15T10:40:28.195Z,25.91
2023-04-15T10:42:57.915Z,26.24
2023-04-15T10:45:34.218Z,25.34
2023-04-15T10:48:04.064Z,27.76
2023-04-15T10:50:33.276Z,26.38
2023-04-15T10:53:05.735Z,25.58
2023-04-15T10:55:34.997Z,26.86
2023-04-15T10:58:04.221Z,26.06
2023-04-15T11:00:33.316Z,27.17
2023-04-15T11:03:08.880Z,27.12
2023-04-15T11:05:51.038Z,24.89
2023-04-15T11:08:41.804Z,26.01
2023-04-15T11:11:10.449Z,24.99
2023-04-15T11:13:47.573Z,26.04
2023-04-15T11:16:16.443Z,27.94
2023-04-15T11:18:55.910Z,29.37
2023-04-15T11:21:28.241Z,29.15
2023-04-15T11:23:56.857Z,28.65
2023-04-15T11:26:27.259Z,28.65
2023-04-15T11:28:57.049Z,28.78
2023-04-15T11:31:27.912Z,26.64
2023-04-15T11:33:59.152Z,26.63
2023-04-15T11:36:29.531Z,27.71
2023-04-15T11:38:59.511Z,25.50
2023-04-15T11:41:28.106Z,26.19
2023-04-15T11:43:56.810Z,27.82
2023-04-15T11:46:32.027Z,27.91
2023-04-15T11:49:01.685Z,28.90
2023-04-15T11:51:34.714Z,27.44
2023-04-15T11:54:02.739Z,27.84
2023-04-15T11:56:30.539Z,29.60
2023-04-15T11:59:02.342Z,27.72
2023-04-15T12:01:32.864Z,25.98
2023-04-15T12:04:01.976Z,26.61
2023-04-15T12:06:35.169Z,26.89
2023-04-15T12:09:12.577Z,26.45
2023-04-15T12:11:41.411Z,27.77
2023-04-15T12:14:10.709Z,28.36
2023-04-15T12:16:48.747Z,27.59
2023-04-15T12:19:19.694Z,26.01
2023-04-15T12:21:48.731Z,23.92
2023-04-15T12:24:19.863Z,23.56
2023-04-15T12:26:47.635Z,22.98
2023-04-15T12:29:16.512Z,23.33
2023-04-15T12:31:54.119Z,23.99
2023-04-15T12:34:35.748Z,24.37
2023-04-15T12:37:04.353Z,26.37
2023-04-15T12:39:33.557Z,26.72
2023-04-15T12:42:01.670Z,25.64
2023-04-15T12:44:30.314Z,25.80
2023-04-15T12:46:58.333Z,26.22
2023-04-15T12:49:26.764Z,26.44
2023-04-15T12:51:55.963Z,25.59
2023-04-15T12:54:23.475Z,25.81
2023-04-15T12:56:51.631Z,27.23
2023-04-15T12:59:19.565Z,26.37
2023-04-15T13:01:47.510Z,26.57
2023-04-15T13:04:16.482Z,25.50
2023-04-15T13:06:44.749Z,26.28
2023-04-15T13:09:12.521Z,27.69
2023-04-15T13:11:39.826Z,28.18
2023-04-15T13:14:08.395Z,25.82
2023-04-15T13:16:36.213Z,24.31
2023-04-15T13:19:04.591Z,22.80
2023-04-15T13:21:35.744Z,23.40
2023-04-15T13:24:04.870Z,24.59
2023-04-15T13:26:33.136Z,24.49
2023-04-15T13:29:01.978Z,23.72
2023-04-15T13:31:29.618Z,24.11
2023-04-15T13:33:57.644Z,22.45
2023-04-15T13:36:26.456Z,22.06
2023-04-15T13:38:54.572Z,21.48
2023-04-15T13:41:22.032Z,21.54
2023-04-15T13:43:49.440Z,22.13
2023-04-15T13:46:17.035Z,21.90
2023-04-15T13:48:44.751Z,21.61
2023-04-15T13:51:12.098Z,20.77
2023-04-15T13:53:39.897Z,20.11
2023-04-15T13:56:08.389Z,20.74
2023-04-15T13:58:37.098Z,20.77
2023-04-15T14:01:06.112Z,21.17
2023-04-15T14:03:34.794Z,21.18
2023-04-15T14:06:02.615Z,21.18
2023-04-15T14:08:31.166Z,21.07
2023-04-15T14:10:58.496Z,21.28
2023-04-15T14:13:26.242Z,20.54
2023-04-15T14:15:53.977Z,20.57
2023-04-15T14:18:21.637Z,20.75
2023-04-15T14:20:49.464Z,20.69
2023-04-15T14:23:17.188Z,20.10
2023-04-15T14:25:46.685Z,20.05
2023-04-15T14:28:15.464Z,19.71
2023-04-15T14:30:42.915Z,20.39
2023-04-15T14:33:10.272Z,20.84
2023-04-15T14:35:38.009Z,19.94
2023-04-15T14:38:06.200Z,20.02
2023-04-15T14:40:34.497Z,20.26
2023-04-15T14:43:01.843Z,19.75
2023-04-15T14:45:30.670Z,20.01
2023-04-15T14:47:59.507Z,20.18
2023-04-15T14:50:27.507Z,20.33
2023-04-15T14:52:55.505Z,20.55
2023-04-15T14:55:22.859Z,20.35
2023-04-15T14:57:50.567Z,19.97
2023-04-15T15:00:18.357Z,20.95
2023-04-15T15:02:47.574Z,20.95
2023-04-15T15:05:15.180Z,20.43
2023-04-15T15:07:42.522Z,20.64
2023-04-15T15:10:10.029Z,20.45
2023-04-15T15:12:37.688Z,20.91
2023-04-15T15:15:15.581Z,20.15
2023-04-15T15:17:54.412Z,19.54
2023-04-15T15:20:23.141Z,19.61
2023-04-15T15:22:50.685Z,19.49
2023-04-15T15:25:18.498Z,19.21
2023-04-15T15:27:46.707Z,19.78
2023-04-15T15:30:14.412Z,19.04
2023-04-15T15:32:43.037Z,20.29
2023-04-15T15:35:10.847Z,19.29
2023-04-15T15:37:39.110Z,19.34
2023-04-15T15:40:07.531Z,19.55
2023-04-15T15:42:35.020Z,19.61
2023-04-15T15:45:03.619Z,19.79
2023-04-15T15:47:32.191Z,20.31
2023-04-15T15:50:00.572Z,20.29
2023-04-15T15:52:28.452Z,20.20
2023-04-15T15:54:56.262Z,21.01
2023-04-15T15:57:24.006Z,20.94
2023-04-15T16:00:01.998Z,20.67
2023-04-15T16:03:04.469Z,20.42
2023-04-15T16:05:24.853Z,19.73
2023-04-15T16:07:52.747Z,19.75
2023-04-15T16:10:20.583Z,20.06
2023-04-15T16:12:48.918Z,19.67
2023-04-15T16:15:16.507Z,19.75
2023-04-15T16:17:44.198Z,19.81
2023-04-15T16:20:11.750Z,19.72
2023-04-15T16:22:39.465Z,19.57
2023-04-15T16:25:07.374Z,19.42
2023-04-15T16:27:43.441Z,19.51
2023-04-15T16:30:18.032Z,19.29
2023-04-15T16:32:45.736Z,18.78
2023-04-15T16:35:14.522Z,19.10
2023-04-15T16:37:42.541Z,18.95
2023-04-15T16:40:10.531Z,18.94
2023-04-15T16:42:38.840Z,18.98
2023-04-15T16:45:06.860Z,18.15
2023-04-15T16:47:35.056Z,17.91
2023-04-15T16:50:02.362Z,17.97
2023-04-15T16:52:30.136Z,17.91
2023-04-15T16:54:57.484Z,17.82
2023-04-15T16:57:24.822Z,18.17
2023-04-15T16:59:59.181Z,18.15
2023-04-15T17:02:27.040Z,17.78
2023-04-15T17:04:54.663Z,17.93
2023-04-15T17:07:21.998Z,17.84
2023-04-15T17:09:49.235Z,17.64
2023-04-15T17:12:16.584Z,17.35
2023-04-15T17:14:44.901Z,17.23
2023-04-15T17:17:12.639Z,17.27
2023-04-15T17:19:40.058Z,16.84
2023-04-15T17:22:10.319Z,16.49
2023-04-15T17:24:38.887Z,16.79
2023-04-15T17:27:10.258Z,16.58
2023-04-15T17:29:38.947Z,16.73
2023-04-15T17:32:19.180Z,16.56
2023-04-15T17:35:07.204Z,16.18
2023-04-15T17:37:54.464Z,16.12
2023-04-15T17:40:42.020Z,16.32
2023-04-15T17:43:29.525Z,16.00
2023-04-15T17:46:19.364Z,16.13
2023-04-15T17:49:07.500Z,16.34
2023-04-15T17:51:55.758Z,15.89
2023-04-15T17:54:42.866Z,16.14
2023-04-15T17:57:30.947Z,16.06
2023-04-15T18:00:18.560Z,16.03
2023-04-15T18:03:05.878Z,16.18
2023-04-15T18:05:53.381Z,15.89
2023-04-15T18:08:41.254Z,16.12
2023-04-15T18:11:28.375Z,15.74
2023-04-15T18:14:30.587Z,15.91
2023-04-15T18:17:21.734Z,15.98
2023-04-15T18:20:09.598Z,15.78
2023-04-15T18:22:37.298Z,15.85
2023-04-15T18:25:05.528Z,15.80
2023-04-15T18:27:33.939Z,15.78
2023-04-15T18:30:01.228Z,15.35
2023-04-15T18:32:31.920Z,15.21
2023-04-15T18:34:59.657Z,15.37
2023-04-15T18:37:29.363Z,15.24
2023-04-15T18:39:57.299Z,15.28
2023-04-15T18:42:25.728Z,15.20
2023-04-15T18:44:54.087Z,15.08
2023-04-15T18:47:22.204Z,14.93
2023-04-15T18:49:50.052Z,15.09
2023-04-15T18:52:17.311Z,14.90
2023-04-15T18:54:44.542Z,14.79
2023-04-15T18:57:12.691Z,14.64
2023-04-15T18:59:40.500Z,14.78
2023-04-15T19:02:09.125Z,14.75
2023-04-15T19:04:37.758Z,14.76
2023-04-15T19:07:05.180Z,14.61
2023-04-15T19:09:33.197Z,14.69
2023-04-15T19:12:01.870Z,14.73
2023-04-15T19:14:29.385Z,14.61
2023-04-15T19:16:57.017Z,14.61
2023-04-15T19:19:24.494Z,14.60
2023-04-15T19:21:52.837Z,14.57
2023-04-15T19:24:20.136Z,14.50
2023-04-15T19:26:49.015Z,14.61
2023-04-15T19:29:17.158Z,14.38
2023-04-15T19:31:44.877Z,14.47
2023-04-15T19:34:12.212Z,14.57
2023-04-15T19:36:39.621Z,14.67
2023-04-15T19:39:07.278Z,14.67
2023-04-15T19:41:36.234Z,14.54
2023-04-15T19:44:04.498Z,14.39
2023-04-15T19:46:32.335Z,14.37
2023-04-15T19:49:01.089Z,14.43
2023-04-15T19:51:30.453Z,14.26
2023-04-15T19:53:59.583Z,14.10
2023-04-15T19:56:26.962Z,13.98
2023-04-15T19:58:55.070Z,13.98
2023-04-15T20:01:22.794Z,14.09
2023-04-15T20:03:51.694Z,14.09
2023-04-15T20:06:19.200Z,13.96
2023-04-15T20:08:46.582Z,13.94
2023-04-15T20:11:15.204Z,14.10
2023-04-15T20:13:42.679Z,14.22
2023-04-15T20:16:11.813Z,13.97
2023-04-15T20:18:39.198Z,13.91
2023-04-15T20:21:06.912Z,13.90
2023-04-15T20:23:36.003Z,13.97
2023-04-15T20:26:03.929Z,13.99
2023-04-15T20:28:33.071Z,14.02
2023-04-15T20:31:01.510Z,13.87
2023-04-15T20:33:29.308Z,13.99
2023-04-15T20:35:56.740Z,13.89
2023-04-15T20:38:24.146Z,13.83
2023-04-15T20:40:51.432Z,13.76
2023-04-15T20:43:19.512Z,13.58
2023-04-15T20:45:46.884Z,13.63
2023-04-15T20:48:14.353Z,13.70
2023-04-15T20:50:42.145Z,13.53
2023-04-15T20:53:09.551Z,13.54
2023-04-15T20:55:37.295Z,13.54
2023-04-15T20:58:05.005Z,13.59
2023-04-15T21:00:33.313Z,13.39
2023-04-15T21:03:01.083Z,13.47
2023-04-15T21:05:29.460Z,13.30
2023-04-15T21:07:57.179Z,13.23
2023-04-15T21:10:25.293Z,13.25
2023-04-15T21:12:53.511Z,13.27
2023-04-15T21:15:21.379Z,13.37
2023-04-15T21:17:48.714Z,13.44
2023-04-15T21:20:16.595Z,13.39
2023-04-15T21:22:44.723Z,13.37
2023-04-15T21:25:12.466Z,13.28
2023-04-15T21:27:40.369Z,13.23
2023-04-15T21:30:08.358Z,13.39
2023-04-15T21:32:36.307Z,13.38
2023-04-15T21:35:05.816Z,13.23
2023-04-15T21:37:33.817Z,13.23
2023-04-15T21:40:01.668Z,13.39
2023-04-15T21:42:29.787Z,13.38
2023-04-15T21:44:57.181Z,13.27
2023-04-15T21:47:25.002Z,13.47
2023-04-15T21:49:52.830Z,13.50
2023-04-15T21:52:20.202Z,13.39
2023-04-15T21:54:48.105Z,13.23
2023-04-15T21:57:15.879Z,13.30
2023-04-15T21:59:43.199Z,13.32
2023-04-15T22:02:11.581Z,13.32
2023-04-15T22:04:39.656Z,13.63
2023-04-15T22:07:06.982Z,13.36
2023-04-15T22:09:34.298Z,13.29
2023-04-15T22:12:03.932Z,13.24
2023-04-15T22:14:31.701Z,13.25
2023-04-15T22:16:59.236Z,13.18
2023-04-15T22:19:26.656Z,13.06
2023-04-15T22:21:54.486Z,13.16
2023-04-15T22:24:32.494Z,13.02
2023-04-15T22:27:07.218Z,12.90
2023-04-15T22:29:35.062Z,12.96
2023-04-15T22:32:02.460Z,12.94
2023-04-15T22:34:30.261Z,12.82
2023-04-15T22:36:58.187Z,12.89
2023-04-15T22:39:25.557Z,12.93
2023-04-15T22:41:52.798Z,12.87
2023-04-15T22:44:20.223Z,12.87
2023-04-15T22:46:47.534Z,12.75
2023-04-15T22:49:15.579Z,12.75
2023-04-15T22:51:43.342Z,12.73
2023-04-15T22:54:10.853Z,12.80
2023-04-15T22:57:15.619Z,12.66
2023-04-15T23:00:16.030Z,12.64
2023-04-15T23:02:43.480Z,12.58
2023-04-15T23:05:12.549Z,12.60
2023-04-15T23:07:41.157Z,12.63
2023-04-15T23:10:09.079Z,12.53
2023-04-15T23:12:36.409Z,12.45
2023-04-15T23:15:04.376Z,12.51
2023-04-15T23:17:32.142Z,12.53
2023-04-15T23:19:59.506Z,12.58
2023-04-15T23:22:27.272Z,12.45
2023-04-15T23:24:55.511Z,12.38
2023-04-15T23:27:22.897Z,12.40
2023-04-15T23:29:50.191Z,12.42
2023-04-15T23:32:18.001Z,12.51
2023-04-15T23:34:45.515Z,12.32
2023-04-15T23:37:13.303Z,12.24
2023-04-15T23:39:41.059Z,12.31
2023-04-15T23:42:08.639Z,12.24
2023-04-15T23:44:38.319Z,12.09
2023-04-15T23:47:05.914Z,12.03
2023-04-15T23:49:33.394Z,12.06
2023-04-15T23:52:01.508Z,12.00
2023-04-15T23:54:28.828Z,12.02
2023-04-15T23:56:56.180Z,12.08
2023-04-15T23:59:23.480Z,12.13
